KGNT/GNT METAR and TAF weather

Enter ICAO airport designator
Station Type Date Time Source
KGNT METAR 2019/02/16 06:55 UTC NOAA

KGNT 160655Z AUTO 22012G18KT 10SM CLR 06/00 A2990 RMK AO2 T00580003 401170046


Station Type Date Time Source
KGNT Decoded METAR 2019/02/16 06:55 UTC NOAA

GRANTS-MILAN MUNICIPAL AIRPORT , NM, United States (KGNT) 35-10N 107-54W 1987M
Feb 16, 2019 - 01:55 AM EST / 2019.02.16 0655 UTC
Wind: from the SW (220 degrees) at 14 MPH (12 KT) gusting to 21 MPH (18 KT):0
Visibility: 10 mile(s):0
Sky conditions: clear
Temperature: 42.4 F (5.8 C)
Dew Point: 32.5 F (0.3 C)
Relative Humidity: 67%
Pressure (altimeter): 29.9 in. Hg (1012 hPa)
ob: KGNT 160655Z AUTO 22012G18KT 10SM CLR 06/00 A2990 RMK AO2 T00580003 401170046
cycle: 7

Station Type Date Time Source
KGNT TAF UTC NOAA

Error!


Example: see airport list